CheckWX is a tool to help pilots better visualize weather data.  It is not intended as a substitute for an official pre-flight weather briefing.

04:58:15 UTC

KFLO METAR
Florence Regional Airport
Florence, South Carolina, USA
Current

1 hour ago

KFLO 080353Z AUTO 04007KT 10SM CLR 07/02 A3040 RMK AO2 SLP290 T00670017
Observed
Dec-8 @ 03:53 UTC
Wind
  • 040° at 7 KTS
Visibility
10 SM
Flight Rules
VFR
Cloud Levels
  • Clear skies
Temperature
C / 45°F
Dewpoint
C / 36°F
Humidity
71%
Altimeter
30.4" Hg
Pressure
1029.42 hPa
Previous

2 hours ago

KFLO 080253Z 05008KT 10SM CLR 08/03 A3038 RMK AO2 SLP286 T00780028 51013
Observed
Dec-8 @ 02:53 UTC
Wind
  • 050° at 8 KTS
Visibility
10 SM
Flight Rules
VFR
Cloud Levels
  • Clear skies
Temperature
C / 46°F
Dewpoint
C / 37°F
Humidity
71%
Altimeter
30.38" Hg
Pressure
1028.82 hPa
Previous

3 hours ago

KFLO 080153Z 05008KT 10SM CLR 08/03 A3037 RMK AO2 SLP283 T00830033
Observed
Dec-8 @ 01:53 UTC
Wind
  • 050° at 8 KTS
Visibility
10 SM
Flight Rules
VFR
Cloud Levels
  • Clear skies
Temperature
C / 46°F
Dewpoint
C / 37°F
Humidity
71%
Altimeter
30.37" Hg
Pressure
1028.42 hPa